Time;durP1;ratioP1;P1;durP2;ratioP2;P2;SDS_P1;SDS_P2;PMS_P1;PMS_P2;Temp;Humidity;BMP_temperature;BMP_pressure;BME280_temperature;BME280_humidity;BME280_pressure;Samples;Min_cycle;Max_cycle;Signal;HPM_P1;HPM_P2
2022/02/02 00:01:43;;;;;;;12.70;12.00;;;5.10;99.90;;;;;;4999044;28;20209;-77
2022/02/02 00:04:13;;;;;;;12.57;11.77;;;5.10;99.90;;;;;;4999647;28;20222;-79
2022/02/02 00:06:45;;;;;;;12.60;11.90;;;5.10;99.90;;;;;;4999560;28;20209;-78
2022/02/02 00:09:16;;;;;;;13.57;12.77;;;5.10;99.90;;;;;;5001155;28;20608;-77
2022/02/02 00:12:08;;;;;;;13.20;12.40;;;5.10;99.90;;;;;;5002238;28;20228;-78
2022/02/02 00:14:46;;;;;;;13.03;12.23;;;5.10;99.90;;;;;;4997212;28;20225;-78
2022/02/02 00:17:16;;;;;;;13.30;12.50;;;5.10;99.90;;;;;;5001995;28;20258;-78
2022/02/02 00:19:54;;;;;;;12.50;11.77;;;5.10;99.90;;;;;;4998958;28;20239;-78
2022/02/02 00:22:27;;;;;;;15.17;14.27;;;5.10;99.90;;;;;;4996856;28;20221;-78
2022/02/02 00:25:07;;;;;;;14.07;13.17;;;5.10;99.90;;;;;;4997559;28;20193;-78
2022/02/02 00:27:36;;;;;;;14.63;13.53;;;5.10;99.90;;;;;;4991854;28;20200;-78
2022/02/02 00:30:10;;;;;;;13.87;13.03;;;5.10;99.90;;;;;;4995167;28;20193;-77
2022/02/02 00:33:00;;;;;;;15.57;14.43;;;5.20;99.90;;;;;;4999922;28;20706;-78
2022/02/02 00:35:31;;;;;;;15.00;13.90;;;5.20;99.90;;;;;;5000713;28;20290;-78
2022/02/02 00:37:58;;;;;;;14.30;13.23;;;5.20;99.90;;;;;;4999325;28;20212;-78
2022/02/02 00:40:27;;;;;;;13.53;12.63;;;5.20;99.90;;;;;;4999861;28;20224;-78
2022/02/02 00:42:53;;;;;;;14.50;13.60;;;5.20;99.90;;;;;;5000670;28;20220;-78
2022/02/02 00:45:24;;;;;;;14.87;13.70;;;5.10;99.90;;;;;;4999035;28;20567;-78
2022/02/02 00:47:51;;;;;;;15.20;14.00;;;5.20;99.90;;;;;;4999305;28;20208;-78
2022/02/02 00:50:18;;;;;;;15.23;14.20;;;5.20;99.90;;;;;;5002347;28;20193;-78
2022/02/02 00:52:50;;;;;;;14.77;13.77;;;5.20;99.90;;;;;;4999142;28;20308;-78
2022/02/02 00:55:17;;;;;;;15.53;14.30;;;5.30;99.90;;;;;;4999792;28;20692;-78
2022/02/02 00:57:46;;;;;;;16.10;14.90;;;5.30;99.90;;;;;;4996708;28;20196;-78
2022/02/02 01:00:14;;;;;;;16.37;14.90;;;5.30;99.90;;;;;;5000968;28;20212;-78
2022/02/02 01:02:41;;;;;;;16.10;14.93;;;5.30;99.90;;;;;;4999302;28;20232;-78
2022/02/02 01:05:08;;;;;;;16.10;14.90;;;5.30;99.90;;;;;;4997292;28;20216;-78
2022/02/02 01:07:53;;;;;;;15.40;14.50;;;5.40;99.90;;;;;;5000244;28;20197;-78
2022/02/02 01:10:25;;;;;;;15.70;14.50;;;5.40;99.90;;;;;;4999634;28;20252;-78
2022/02/02 01:13:07;;;;;;;14.60;13.43;;;5.40;99.90;;;;;;4998843;28;20217;-78
2022/02/02 01:18:32;;;;;;;15.00;14.10;;;5.50;99.90;;;;;;4997703;28;20207;-78
2022/02/02 01:21:02;;;;;;;14.80;13.90;;;5.60;99.90;;;;;;4999881;28;20202;-78
2022/02/02 01:29:00;;;;;;;14.00;13.10;;;5.70;99.90;;;;;;5003931;28;20184;-78
2022/02/02 01:31:27;;;;;;;14.57;13.47;;;5.70;99.90;;;;;;4998922;28;20813;-78
2022/02/02 01:33:54;;;;;;;15.70;14.43;;;5.60;99.90;;;;;;5006872;28;20221;-78
2022/02/02 01:36:20;;;;;;;14.70;13.70;;;5.60;99.90;;;;;;5001234;28;20205;-77
2022/02/02 01:38:50;;;;;;;14.80;13.57;;;5.70;99.90;;;;;;5002466;28;20597;-78
2022/02/02 01:41:23;;;;;;;14.50;13.20;;;5.60;99.90;;;;;;5004340;28;20224;-78
2022/02/02 01:43:57;;;;;;;15.80;14.67;;;5.70;99.90;;;;;;5003213;28;20613;-78
2022/02/02 01:46:30;;;;;;;14.40;13.50;;;5.60;99.90;;;;;;5005140;28;20208;-78
2022/02/02 01:49:05;;;;;;;14.87;13.90;;;5.70;99.90;;;;;;4998093;28;20659;-78
2022/02/02 01:54:31;;;;;;;14.63;13.53;;;5.70;99.90;;;;;;5003979;28;20209;-77
2022/02/02 01:57:01;;;;;;;14.30;13.40;;;5.70;99.90;;;;;;5003703;28;20219;-78
2022/02/02 01:59:38;;;;;;;15.67;14.27;;;5.70;99.90;;;;;;4990778;28;20267;-76
2022/02/02 02:02:08;;;;;;;14.90;13.80;;;5.70;99.90;;;;;;4997107;28;20316;-79
2022/02/02 02:04:36;;;;;;;15.67;14.37;;;5.70;99.90;;;;;;5044513;22;20227;-80
2022/02/02 02:07:04;;;;;;;15.57;14.30;;;5.70;99.90;;;;;;5023856;28;20193;-79
2022/02/02 02:09:32;;;;;;;14.67;13.73;;;5.70;99.90;;;;;;5029757;28;20192;-79
2022/02/02 02:12:01;;;;;;;15.13;13.70;;;5.70;99.90;;;;;;5026614;28;20192;-78
2022/02/02 02:14:43;;;;;;;14.67;13.60;;;5.60;99.90;;;;;;5031074;28;20278;-80
2022/02/02 02:17:13;;;;;;;14.70;13.70;;;5.60;99.90;;;;;;5031024;28;20215;-78
2022/02/02 02:19:43;;;;;;;14.57;13.57;;;5.70;99.90;;;;;;5024534;28;20224;-78
2022/02/02 02:22:14;;;;;;;14.97;13.87;;;5.70;99.90;;;;;;5029057;28;20266;-79
2022/02/02 02:24:44;;;;;;;14.67;13.53;;;5.70;99.90;;;;;;5024633;28;20251;-81
2022/02/02 02:27:14;;;;;;;14.90;13.80;;;5.70;99.90;;;;;;5023050;28;20220;-79
2022/02/02 02:29:59;;;;;;;14.63;13.70;;;5.70;99.90;;;;;;5024612;28;20227;-80
2022/02/02 02:35:39;;;;;;;14.43;13.53;;;5.70;99.90;;;;;;4986283;28;20217;-79
2022/02/02 02:38:42;;;;;;;14.83;13.70;;;5.70;99.90;;;;;;5022550;28;20582;-79
2022/02/02 02:57:44;;;;;;;15.30;14.17;;;5.70;99.90;;;;;;5041877;28;20189;-80
2022/02/02 03:00:31;;;;;;;15.40;14.33;;;5.70;99.90;;;;;;5027843;28;20225;-80
2022/02/02 03:13:50;;;;;;;15.13;13.97;;;5.70;99.90;;;;;;5024092;28;20253;-80
2022/02/02 03:29:46;;;;;;;16.70;15.50;;;5.70;99.90;;;;;;4972968;28;20212;-80
2022/02/02 03:31:29;;;;;;;15.43;14.33;;;5.70;99.90;;;;;;5027256;28;20606;-81
2022/02/02 03:51:08;;;;;;;15.63;14.20;;;5.80;99.90;;;;;;5029636;28;20689;-79
2022/02/02 03:54:07;;;;;;;15.37;14.03;;;5.80;99.90;;;;;;5016492;28;20217;-80
2022/02/02 03:56:40;;;;;;;15.07;13.80;;;5.80;99.90;;;;;;5026636;28;20201;-80
2022/02/02 03:59:25;;;;;;;15.00;13.60;;;5.90;99.90;;;;;;5017463;28;20220;-80
2022/02/02 04:02:10;;;;;;;13.77;12.70;;;5.80;99.90;;;;;;5018064;28;20213;-80
2022/02/02 04:04:47;;;;;;;13.37;12.47;;;5.90;99.90;;;;;;5028701;28;20240;-81
2022/02/02 04:07:19;;;;;;;13.57;12.57;;;5.80;99.90;;;;;;5030161;28;20211;-81
2022/02/02 04:09:48;;;;;;;14.10;12.93;;;5.80;99.90;;;;;;5025274;28;20192;-83
2022/02/02 04:12:25;;;;;;;13.87;12.90;;;5.80;99.90;;;;;;5030882;28;20218;-82
2022/02/02 04:17:55;;;;;;;14.03;12.97;;;5.80;99.90;;;;;;5017458;28;20191;-83
2022/02/02 04:56:23;;;;;;;13.10;12.27;;;5.90;99.90;;;;;;5030254;28;20207;-82
2022/02/02 04:59:00;;;;;;;12.67;11.77;;;5.90;99.90;;;;;;5026388;28;20211;-83
2022/02/02 05:04:47;;;;;;;12.97;11.90;;;5.90;99.90;;;;;;4992185;28;20258;-84
2022/02/02 05:07:19;;;;;;;13.47;12.57;;;6.00;99.90;;;;;;5007358;28;20213;-82
2022/02/02 05:09:56;;;;;;;13.23;12.20;;;5.90;99.90;;;;;;5022758;28;20197;-83
2022/02/02 05:15:47;;;;;;;13.20;12.30;;;5.90;99.90;;;;;;5029735;28;20200;-84
2022/02/02 05:18:37;;;;;;;13.23;12.23;;;5.90;99.90;;;;;;5025970;28;20247;-83
2022/02/02 05:48:36;;;;;;;14.37;12.57;;;5.60;99.90;;;;;;5031026;28;20204;-85
2022/02/02 05:53:45;;;;;;;12.93;11.73;;;5.60;99.90;;;;;;5032935;28;20219;-85
2022/02/02 05:56:13;;;;;;;12.90;11.73;;;5.60;99.90;;;;;;5026498;28;20559;-81
2022/02/02 05:58:44;;;;;;;13.10;11.90;;;5.60;99.90;;;;;;5026979;28;20189;-80
2022/02/02 06:01:12;;;;;;;12.97;11.77;;;5.60;99.90;;;;;;5027719;28;20767;-80
2022/02/02 06:03:50;;;;;;;12.63;11.53;;;5.60;99.90;;;;;;5027528;28;20219;-80
2022/02/02 06:06:17;;;;;;;12.63;11.37;;;5.60;99.90;;;;;;5026590;28;20207;-80
2022/02/02 06:08:46;;;;;;;13.03;11.93;;;5.60;99.90;;;;;;5025244;28;20644;-80
2022/02/02 06:11:15;;;;;;;12.87;11.77;;;5.60;99.90;;;;;;5029324;28;20196;-81
2022/02/02 06:13:46;;;;;;;13.43;12.03;;;5.60;99.90;;;;;;5022788;28;20254;-81
2022/02/02 06:16:14;;;;;;;14.03;12.07;;;5.60;99.90;;;;;;5027898;28;20680;-80
2022/02/02 06:18:41;;;;;;;13.13;12.03;;;5.60;99.90;;;;;;5027851;28;20198;-80
2022/02/02 06:21:09;;;;;;;12.73;11.67;;;5.70;99.90;;;;;;5028782;28;20298;-80
2022/02/02 06:23:38;;;;;;;12.07;11.27;;;5.70;99.90;;;;;;5025134;28;20242;-81
2022/02/02 06:26:12;;;;;;;13.30;11.80;;;5.70;99.90;;;;;;5023989;28;20292;-80
2022/02/02 06:28:42;;;;;;;12.63;11.53;;;5.70;99.90;;;;;;5025668;28;20201;-81
2022/02/02 06:31:13;;;;;;;12.63;11.57;;;5.70;99.90;;;;;;5026511;28;20211;-80
2022/02/02 06:33:41;;;;;;;12.77;11.70;;;5.80;99.90;;;;;;5028454;28;20696;-80
2022/02/02 06:36:10;;;;;;;12.30;11.30;;;5.70;99.90;;;;;;5011976;28;20749;-80
2022/02/02 06:38:39;;;;;;;11.90;11.10;;;5.80;99.90;;;;;;5024168;28;20587;-81
2022/02/02 06:41:07;;;;;;;12.70;11.87;;;5.70;99.90;;;;;;5024094;28;20220;-80
2022/02/02 06:43:35;;;;;;;12.57;11.67;;;5.80;99.90;;;;;;5026784;28;20235;-80
2022/02/02 06:46:03;;;;;;;13.17;12.13;;;5.80;99.90;;;;;;5031760;28;20585;-80
2022/02/02 06:48:33;;;;;;;12.93;11.80;;;5.80;99.90;;;;;;5020272;28;20199;-80
2022/02/02 06:51:07;;;;;;;13.30;12.30;;;5.80;99.90;;;;;;5021598;28;20204;-80
2022/02/02 06:53:46;;;;;;;13.67;12.33;;;5.80;99.90;;;;;;5008560;28;20215;-80
2022/02/02 06:56:31;;;;;;;16.13;12.37;;;5.80;99.90;;;;;;5013932;28;20240;-80
2022/02/02 06:59:15;;;;;;;12.93;11.70;;;5.90;99.90;;;;;;5019744;28;20232;-80
2022/02/02 07:01:53;;;;;;;13.07;11.93;;;5.90;99.90;;;;;;5018316;28;20201;-80
2022/02/02 07:04:50;;;;;;;11.90;11.07;;;5.90;99.90;;;;;;5024881;28;20267;-80
2022/02/02 07:07:33;;;;;;;12.53;11.53;;;5.90;99.90;;;;;;5025897;28;20207;-82
2022/02/02 07:10:14;;;;;;;13.83;12.50;;;5.90;99.90;;;;;;5028947;28;20228;-82
2022/02/02 07:12:54;;;;;;;13.13;12.07;;;5.90;99.90;;;;;;5035446;28;20208;-81
2022/02/02 07:15:27;;;;;;;13.20;11.93;;;5.90;99.90;;;;;;5028460;28;20215;-82
2022/02/02 07:18:11;;;;;;;12.87;11.97;;;5.90;99.90;;;;;;5033787;28;20262;-82
2022/02/02 07:20:48;;;;;;;12.77;11.97;;;5.90;99.90;;;;;;5026951;28;20209;-82
2022/02/02 07:23:37;;;;;;;13.80;12.60;;;6.00;99.90;;;;;;5027756;28;20279;-82
2022/02/02 07:26:27;;;;;;;13.20;12.17;;;6.00;99.90;;;;;;5025495;28;20224;-80
2022/02/02 07:29:01;;;;;;;13.47;12.10;;;6.00;99.90;;;;;;5021112;28;20200;-82
2022/02/02 07:31:40;;;;;;;13.77;12.50;;;6.00;99.90;;;;;;5032713;28;20214;-81
2022/02/02 07:34:17;;;;;;;14.10;12.80;;;6.00;99.90;;;;;;5038194;28;20220;-82
2022/02/02 07:36:50;;;;;;;13.57;12.53;;;6.10;99.90;;;;;;5023221;28;20216;-82
2022/02/02 07:39:20;;;;;;;13.73;12.57;;;6.10;99.90;;;;;;5020265;28;20216;-81
2022/02/02 07:41:48;;;;;;;12.53;11.63;;;6.10;99.90;;;;;;5029036;28;20215;-82
2022/02/02 07:44:19;;;;;;;13.03;11.90;;;6.10;99.90;;;;;;5024481;28;20713;-82
2022/02/02 07:46:47;;;;;;;13.93;12.63;;;6.10;99.90;;;;;;5023340;28;20694;-82
2022/02/02 07:49:17;;;;;;;13.73;12.43;;;6.20;99.90;;;;;;5026064;28;20586;-82
2022/02/02 07:51:50;;;;;;;12.60;11.80;;;6.20;99.90;;;;;;5025165;28;20208;-82
2022/02/02 07:54:22;;;;;;;12.80;11.90;;;6.20;99.90;;;;;;5020828;28;20248;-81
2022/02/02 07:56:50;;;;;;;12.30;11.50;;;6.20;99.90;;;;;;5028757;28;20200;-81
2022/02/02 07:59:23;;;;;;;12.93;11.73;;;6.20;99.90;;;;;;5019281;28;20731;-82
2022/02/02 08:01:52;;;;;;;13.17;11.90;;;6.20;99.90;;;;;;5021620;28;20295;-82
2022/02/02 08:04:22;;;;;;;11.83;11.03;;;6.20;99.90;;;;;;5026527;28;20271;-80
2022/02/02 08:06:53;;;;;;;11.67;10.87;;;6.30;99.90;;;;;;5024880;28;20192;-82
2022/02/02 08:09:30;;;;;;;12.57;11.57;;;6.30;99.90;;;;;;5025614;28;20227;-81
2022/02/02 08:11:58;;;;;;;12.30;11.40;;;6.30;99.90;;;;;;5019077;28;20231;-80
2022/02/02 08:14:27;;;;;;;12.30;11.50;;;6.30;99.90;;;;;;5028943;28;20664;-82
2022/02/02 08:16:54;;;;;;;13.43;12.27;;;6.30;99.90;;;;;;5025753;28;20312;-82
2022/02/02 08:19:22;;;;;;;12.50;11.60;;;6.40;99.90;;;;;;5019131;28;20205;-82
2022/02/02 08:21:50;;;;;;;12.80;11.77;;;6.40;99.90;;;;;;5015987;28;20241;-81
2022/02/02 08:24:18;;;;;;;13.07;12.10;;;6.40;99.90;;;;;;5022162;28;20220;-82
2022/02/02 08:26:45;;;;;;;13.73;12.53;;;6.40;99.90;;;;;;5022241;28;20200;-82
2022/02/02 08:29:12;;;;;;;14.30;12.73;;;6.40;99.90;;;;;;5023721;28;20215;-82
2022/02/02 08:31:39;;;;;;;13.70;12.40;;;6.40;99.90;;;;;;5024152;28;20193;-81
2022/02/02 08:34:10;;;;;;;13.73;12.60;;;6.40;99.90;;;;;;5028262;28;20215;-81
2022/02/02 08:36:40;;;;;;;14.97;13.07;;;6.40;99.90;;;;;;5021531;28;20637;-80
2022/02/02 08:39:19;;;;;;;15.27;12.87;;;6.40;99.90;;;;;;5016231;28;20206;-81
2022/02/02 08:41:49;;;;;;;14.07;12.83;;;6.40;99.90;;;;;;5021153;28;20213;-82
2022/02/02 08:44:20;;;;;;;13.93;12.50;;;6.40;99.90;;;;;;5025617;28;20227;-82
2022/02/02 08:46:56;;;;;;;13.97;12.90;;;6.40;99.90;;;;;;5016489;28;20694;-81
2022/02/02 08:49:23;;;;;;;13.40;12.30;;;6.30;99.90;;;;;;5016686;28;20200;-84
2022/02/02 08:51:50;;;;;;;12.70;11.80;;;6.30;99.90;;;;;;5025040;28;20204;-81
2022/02/02 08:54:27;;;;;;;13.60;12.23;;;6.30;99.90;;;;;;5021109;28;20217;-82
2022/02/02 08:57:19;;;;;;;12.93;12.03;;;6.40;99.90;;;;;;5021643;28;20201;-80
2022/02/02 08:59:52;;;;;;;14.20;13.00;;;6.40;99.90;;;;;;5024452;28;20208;-81
2022/02/02 09:02:27;;;;;;;14.00;12.87;;;6.50;99.90;;;;;;5024220;28;20304;-80
2022/02/02 09:07:39;;;;;;;13.77;12.60;;;6.60;99.90;;;;;;5022811;28;20197;-81
2022/02/02 09:10:11;;;;;;;13.47;12.27;;;6.70;99.90;;;;;;5027005;28;20198;-80
2022/02/02 09:23:45;;;;;;;14.43;13.37;;;6.90;99.90;;;;;;5011704;28;20255;-81
2022/02/02 09:32:19;;;;;;;16.13;13.63;;;7.10;99.90;;;;;;4982672;28;20824;-81
2022/02/02 09:34:46;;;;;;;14.53;13.20;;;7.20;99.90;;;;;;4975921;28;20224;-80
2022/02/02 09:37:16;;;;;;;14.97;13.17;;;7.20;99.90;;;;;;4998769;28;20222;-80
2022/02/02 09:39:50;;;;;;;15.03;13.73;;;7.30;99.90;;;;;;5022587;28;20647;-80
2022/02/02 09:42:20;;;;;;;17.37;14.47;;;7.30;99.90;;;;;;5022168;28;20250;-80
2022/02/02 09:44:55;;;;;;;14.77;13.67;;;7.30;99.90;;;;;;5021170;28;20223;-80
2022/02/02 09:47:27;;;;;;;14.73;13.50;;;7.30;99.90;;;;;;5022219;28;20256;-80
2022/02/02 09:50:00;;;;;;;14.80;13.50;;;7.40;99.90;;;;;;5023777;28;20229;-80
2022/02/02 09:52:35;;;;;;;14.73;13.53;;;7.40;99.90;;;;;;5019560;28;20647;-80
2022/02/02 09:55:08;;;;;;;13.83;12.47;;;7.40;99.90;;;;;;5018395;28;20253;-81
2022/02/02 10:06:12;;;;;;;14.23;13.03;;;7.50;99.90;;;;;;5008290;28;20708;-80
2022/02/02 10:14:36;;;;;;;15.57;13.93;;;7.90;99.90;;;;;;4991672;28;20281;-81
2022/02/02 10:17:09;;;;;;;15.33;14.13;;;8.10;99.90;;;;;;5025537;28;20196;-80
2022/02/02 10:19:37;;;;;;;14.30;12.70;;;8.10;99.90;;;;;;5019303;28;20652;-80
2022/02/02 10:22:25;;;;;;;14.53;13.20;;;8.10;99.90;;;;;;5027118;28;20218;-81
2022/02/02 10:24:54;;;;;;;14.27;13.03;;;8.20;99.90;;;;;;5028332;28;20234;-80
2022/02/02 10:27:34;;;;;;;16.40;13.07;;;8.20;99.90;;;;;;5020363;28;20210;-81
2022/02/02 10:30:10;;;;;;;15.57;14.03;;;8.10;99.90;;;;;;5025072;28;20198;-81
2022/02/02 10:32:42;;;;;;;13.83;12.10;;;8.10;99.90;;;;;;5018431;28;20295;-81
2022/02/02 10:35:10;;;;;;;14.83;12.60;;;8.00;99.90;;;;;;5028179;28;20689;-80
2022/02/02 10:37:39;;;;;;;13.57;11.83;;;8.00;99.90;;;;;;5026349;28;20191;-81
2022/02/02 10:40:09;;;;;;;13.37;12.10;;;7.90;99.90;;;;;;5023538;28;20193;-82
2022/02/02 10:42:44;;;;;;;13.03;11.83;;;7.90;99.90;;;;;;5026156;28;20750;-82
2022/02/02 10:45:20;;;;;;;13.67;12.37;;;8.00;99.90;;;;;;5027568;28;20199;-81
2022/02/02 10:47:51;;;;;;;13.33;12.23;;;8.10;99.90;;;;;;5020399;28;20738;-82
2022/02/02 10:50:24;;;;;;;14.90;13.33;;;8.20;99.90;;;;;;5022521;28;20208;-83
2022/02/02 10:53:24;;;;;;;13.87;12.67;;;8.40;99.90;;;;;;5024570;28;20223;-82
2022/02/02 10:56:03;;;;;;;14.53;13.23;;;8.50;99.90;;;;;;5020311;28;20195;-83
2022/02/02 10:59:02;;;;;;;14.27;12.93;;;8.70;99.90;;;;;;5031156;28;20223;-82
2022/02/02 11:01:34;;;;;;;11.33;5.73;;;8.80;99.90;;;;;;5024579;28;20709;-83
2022/02/02 11:06:46;;;;;;;9.90;4.90;;;9.00;99.90;;;;;;5017866;28;20587;-83
2022/02/02 11:09:15;;;;;;;11.00;4.80;;;9.30;99.90;;;;;;5020440;28;20200;-82
2022/02/02 11:11:44;;;;;;;11.50;4.90;;;9.40;99.90;;;;;;5025080;28;20200;-83
2022/02/02 11:14:22;;;;;;;6.57;4.20;;;9.50;99.90;;;;;;5026232;28;20267;-81
2022/02/02 11:16:57;;;;;;;12.57;5.80;;;9.50;99.90;;;;;;5024893;28;20192;-81
2022/02/02 11:19:28;;;;;;;12.53;4.80;;;9.60;99.90;;;;;;5029581;28;20199;-83
2022/02/02 11:21:54;;;;;;;10.13;4.80;;;9.60;99.90;;;;;;5025815;28;20220;-81
2022/02/02 11:24:24;;;;;;;10.03;4.60;;;9.70;99.90;;;;;;5029094;28;20239;-83
2022/02/02 11:26:51;;;;;;;9.30;6.00;;;9.70;99.90;;;;;;5026696;28;20262;-82
2022/02/02 11:29:41;;;;;;;12.93;6.70;;;9.90;99.90;;;;;;5023664;28;20204;-83
2022/02/02 11:32:11;;;;;;;14.33;12.83;;;10.00;99.90;;;;;;5024109;28;20717;-83
2022/02/02 11:34:40;;;;;;;15.07;11.93;;;10.00;99.90;;;;;;5025279;28;20715;-83
2022/02/02 11:37:08;;;;;;;12.83;11.57;;;10.00;99.90;;;;;;5025283;28;20192;-82
2022/02/02 11:39:44;;;;;;;14.27;12.73;;;10.00;99.90;;;;;;5019672;28;20204;-81
2022/02/02 11:42:43;;;;;;;14.27;12.87;;;10.00;99.90;;;;;;5018704;28;20212;-82
2022/02/02 11:45:35;;;;;;;14.27;12.83;;;10.00;99.90;;;;;;5026932;28;20214;-81
2022/02/02 11:48:08;;;;;;;12.43;8.00;;;9.80;99.90;;;;;;5024544;28;20196;-82
2022/02/02 11:50:51;;;;;;;11.33;4.50;;;9.80;99.90;;;;;;5027669;28;20654;-83
2022/02/02 11:53:55;;;;;;;11.93;4.50;;;9.80;99.90;;;;;;5027018;28;20224;-82
2022/02/02 11:56:27;;;;;;;11.33;6.90;;;9.80;99.90;;;;;;5031813;28;20221;-83
2022/02/02 11:58:55;;;;;;;11.60;5.87;;;9.90;99.90;;;;;;5027484;28;20204;-83
2022/02/02 12:01:38;;;;;;;15.37;5.00;;;9.90;99.90;;;;;;5025813;28;20196;-80
2022/02/02 12:04:25;;;;;;;9.53;4.23;;;9.80;99.90;;;;;;5023280;28;20223;-83
2022/02/02 12:07:03;;;;;;;10.13;4.47;;;9.90;99.90;;;;;;5020847;28;20188;-81
2022/02/02 12:09:52;;;;;;;11.23;5.20;;;10.10;99.90;;;;;;5025774;28;20197;-80
2022/02/02 12:48:58;;;;;;;10.13;4.33;;;9.80;99.90;;;;;;5021391;28;20191;-80
2022/02/02 12:57:09;;;;;;;11.77;5.33;;;9.90;99.90;;;;;;5024920;28;20210;-81
2022/02/02 13:02:26;;;;;;;14.63;4.90;;;9.70;99.90;;;;;;5023501;28;20223;-81
2022/02/02 13:04:55;;;;;;;8.30;4.20;;;9.60;99.90;;;;;;5026241;28;20727;-81
2022/02/02 13:07:25;;;;;;;12.33;4.50;;;9.70;99.90;;;;;;5018861;28;20201;-81
2022/02/02 13:09:54;;;;;;;11.93;9.40;;;9.70;99.90;;;;;;5031605;28;20231;-81
2022/02/02 13:12:28;;;;;;;13.07;11.77;;;9.60;99.90;;;;;;5027156;28;20666;-83
2022/02/02 13:15:14;;;;;;;12.47;11.47;;;9.60;99.90;;;;;;5034837;28;20246;-83
2022/02/02 13:17:46;;;;;;;13.03;11.67;;;9.50;99.90;;;;;;5015630;28;20251;-80
2022/02/02 13:20:16;;;;;;;11.80;10.80;;;9.50;99.90;;;;;;5016731;28;20201;-81
2022/02/02 13:22:49;;;;;;;12.10;11.10;;;9.40;99.90;;;;;;5016016;28;20248;-83
2022/02/02 13:25:29;;;;;;;11.97;10.87;;;9.40;99.90;;;;;;5018453;28;20208;-82
2022/02/02 13:27:58;;;;;;;12.33;11.13;;;9.40;99.90;;;;;;5020104;28;20216;-82
2022/02/02 13:30:35;;;;;;;12.30;11.13;;;9.40;99.90;;;;;;5036422;28;20267;-82
2022/02/02 13:33:18;;;;;;;11.93;11.03;;;9.40;99.90;;;;;;5020287;28;20232;-81
2022/02/02 13:35:58;;;;;;;12.20;11.00;;;9.30;99.90;;;;;;5017231;28;20205;-80
2022/02/02 13:38:59;;;;;;;12.03;10.63;;;9.20;99.90;;;;;;5024721;28;20195;-81
2022/02/02 13:44:52;;;;;;;11.70;10.70;;;9.20;99.90;;;;;;5037098;28;20728;-81
2022/02/02 13:50:38;;;;;;;12.20;11.17;;;9.20;99.90;;;;;;5016640;28;20657;-81
2022/02/02 13:56:17;;;;;;;12.57;11.47;;;9.20;99.90;;;;;;5024829;28;20204;-81
2022/02/02 13:59:00;;;;;;;13.00;11.90;;;9.20;99.90;;;;;;5029161;28;20195;-82
2022/02/02 14:01:35;;;;;;;12.80;11.63;;;9.20;99.90;;;;;;5036997;28;20227;-80
2022/02/02 14:04:14;;;;;;;12.03;11.03;;;9.20;99.90;;;;;;5032467;22;20690;-79
2022/02/02 14:06:50;;;;;;;11.73;10.90;;;9.10;99.90;;;;;;5007909;28;20202;-79
2022/02/02 14:09:21;;;;;;;11.60;10.70;;;9.00;99.90;;;;;;5008562;28;20549;-79
2022/02/02 14:31:13;;;;;;;12.07;10.93;;;9.30;99.90;;;;;;5004052;28;20230;-79
2022/02/02 14:33:42;;;;;;;12.00;10.90;;;9.30;99.90;;;;;;4994899;28;20219;-79
2022/02/02 14:36:12;;;;;;;11.20;10.37;;;9.20;99.90;;;;;;4988809;28;20217;-79
2022/02/02 14:38:44;;;;;;;11.93;10.83;;;9.20;99.90;;;;;;5001735;28;20207;-79
2022/02/02 14:41:18;;;;;;;11.77;10.77;;;9.10;99.90;;;;;;5017274;28;20229;-79
2022/02/02 14:43:53;;;;;;;11.80;10.77;;;9.10;99.90;;;;;;5004428;28;20771;-80
2022/02/02 14:46:27;;;;;;;11.70;10.80;;;9.00;99.90;;;;;;5004527;28;20204;-78
2022/02/02 14:48:58;;;;;;;12.03;11.10;;;9.00;99.90;;;;;;4997978;28;20199;-80
2022/02/02 14:51:36;;;;;;;11.80;10.63;;;8.90;99.90;;;;;;5005093;28;20224;-79
2022/02/02 14:54:11;;;;;;;12.23;11.13;;;8.80;99.90;;;;;;5001322;28;20216;-82
2022/02/02 15:05:35;;;;;;;12.13;11.07;;;8.80;99.90;;;;;;4985841;28;20224;-79
2022/02/02 15:25:19;;;;;;;11.83;10.83;;;8.60;99.90;;;;;;4992969;28;20221;-77
2022/02/02 15:27:53;;;;;;;11.27;10.37;;;8.60;99.90;;;;;;4997821;28;20256;-77
2022/02/02 15:30:27;;;;;;;11.60;10.67;;;8.60;99.90;;;;;;5003168;28;20195;-78
2022/02/02 15:32:57;;;;;;;11.80;10.70;;;8.50;99.90;;;;;;4997554;28;20189;-77
2022/02/02 15:35:27;;;;;;;11.63;10.73;;;8.50;99.90;;;;;;5005484;28;20213;-80
2022/02/02 15:37:59;;;;;;;12.73;11.67;;;8.50;99.90;;;;;;5002183;28;20658;-80
2022/02/02 15:40:31;;;;;;;12.10;11.23;;;8.40;99.90;;;;;;5000399;28;20706;-81
2022/02/02 15:43:09;;;;;;;11.73;10.93;;;8.40;99.90;;;;;;4990790;28;20256;-80
2022/02/02 16:00:03;;;;;;;9.97;9.30;;;7.80;99.90;;;;;;4995643;28;20200;-82
2022/02/02 16:02:35;;;;;;;10.17;9.53;;;7.70;99.90;;;;;;4994584;28;20281;-81
2022/02/02 16:05:03;;;;;;;10.90;9.80;;;7.50;99.90;;;;;;4999703;28;20385;-80
2022/02/02 16:07:31;;;;;;;10.80;10.00;;;7.40;99.90;;;;;;5010138;28;20294;-79
2022/02/02 16:10:04;;;;;;;11.07;10.23;;;7.30;99.90;;;;;;4991028;28;20202;-81
2022/02/02 16:12:38;;;;;;;10.77;10.07;;;7.20;99.90;;;;;;4990249;28;20195;-80
2022/02/02 16:15:16;;;;;;;11.33;10.60;;;7.20;99.90;;;;;;5000723;28;20221;-81
2022/02/02 16:31:50;;;;;;;13.07;11.83;;;7.00;99.90;;;;;;5005440;28;20189;-81
2022/02/02 16:37:04;;;;;;;11.57;10.77;;;6.90;99.90;;;;;;5018100;28;20198;-85
2022/02/02 16:39:39;;;;;;;11.23;10.37;;;6.90;99.90;;;;;;4991643;28;20190;-82
2022/02/02 16:44:52;;;;;;;10.67;9.97;;;6.90;99.90;;;;;;4996018;28;20256;-84
2022/02/02 16:47:22;;;;;;;10.83;10.10;;;6.90;99.90;;;;;;5003497;28;20225;-86
2022/02/02 16:49:49;;;;;;;10.80;10.10;;;6.90;99.90;;;;;;5018237;28;20198;-77
2022/02/02 16:52:20;;;;;;;10.90;10.20;;;6.90;99.90;;;;;;5001879;28;20208;-77
2022/02/02 16:54:48;;;;;;;11.10;10.30;;;6.90;99.90;;;;;;5003007;28;20215;-78
2022/02/02 16:57:29;;;;;;;10.73;10.10;;;6.90;99.90;;;;;;5001960;28;20205;-79
2022/02/02 17:33:07;;;;;;;10.70;10.00;;;6.90;99.90;;;;;;5004722;28;20655;-82
2022/02/02 17:35:44;;;;;;;11.30;10.60;;;6.90;99.90;;;;;;4982834;28;20633;-81
2022/02/02 17:38:18;;;;;;;11.83;11.00;;;6.90;99.90;;;;;;5004256;28;20210;-81
2022/02/02 17:40:59;;;;;;;11.17;10.47;;;6.90;99.90;;;;;;5010099;28;20202;-81
2022/02/02 18:19:27;;;;;;;11.90;11.10;;;6.50;99.90;;;;;;4980021;28;20206;-82
2022/02/02 18:21:54;;;;;;;11.97;11.17;;;6.50;99.90;;;;;;4997053;28;20202;-83
2022/02/02 18:24:26;;;;;;;12.17;11.23;;;6.50;99.90;;;;;;5006233;28;20222;-82
2022/02/02 18:26:58;;;;;;;12.03;11.27;;;6.60;99.90;;;;;;4987474;28;20253;-81
2022/02/02 18:29:32;;;;;;;12.00;11.30;;;6.60;99.90;;;;;;5014263;28;20307;-80
2022/02/02 18:32:17;;;;;;;11.93;11.03;;;6.60;99.90;;;;;;4995082;28;20206;-85
2022/02/02 18:34:49;;;;;;;12.73;11.73;;;6.60;99.90;;;;;;5012788;28;20209;-84
2022/02/02 18:45:40;;;;;;;12.77;11.90;;;6.40;99.90;;;;;;4999980;28;20716;-77
2022/02/02 18:48:20;;;;;;;12.93;12.03;;;6.30;99.90;;;;;;4988796;28;20292;-78
2022/02/02 18:51:07;;;;;;;12.50;11.60;;;6.20;99.90;;;;;;4999073;28;20212;-78
2022/02/02 18:53:51;;;;;;;12.30;11.50;;;6.10;99.90;;;;;;5011898;28;20637;-77
2022/02/02 18:56:34;;;;;;;11.83;11.03;;;6.10;99.90;;;;;;5004088;28;20198;-78
2022/02/02 18:59:11;;;;;;;13.00;12.00;;;6.00;99.90;;;;;;5004771;28;20263;-78
2022/02/02 19:01:45;;;;;;;12.63;11.73;;;6.00;99.90;;;;;;4998898;28;20201;-78
2022/02/02 19:04:40;;;;;;;13.20;12.20;;;6.00;99.90;;;;;;4998250;28;20728;-78
2022/02/02 19:07:24;;;;;;;13.40;12.60;;;5.90;99.90;;;;;;5002583;28;20745;-78
2022/02/02 19:30:55;;;;;;;14.80;13.70;;;5.90;99.90;;;;;;4991595;28;20217;-78
2022/02/02 19:40:30;;;;;;;16.50;15.30;;;6.10;99.90;;;;;;4984674;28;20224;-77
2022/02/02 19:56:59;;;;;;;14.23;13.23;;;6.30;99.90;;;;;;4990967;28;20214;-77
2022/02/02 20:02:32;;;;;;;15.00;14.00;;;6.30;99.90;;;;;;4993517;28;20202;-78
2022/02/02 20:05:19;;;;;;;14.80;13.80;;;6.30;99.90;;;;;;4993557;28;20695;-78
2022/02/02 20:08:05;;;;;;;15.17;13.97;;;6.30;99.90;;;;;;5010147;28;20200;-78
2022/02/02 20:10:42;;;;;;;14.33;13.43;;;6.40;99.90;;;;;;4992800;28;20235;-79
2022/02/02 20:13:10;;;;;;;14.20;13.30;;;6.40;99.90;;;;;;4993306;28;20198;-78
2022/02/02 20:15:39;;;;;;;13.57;12.57;;;6.50;99.90;;;;;;4993213;28;20558;-79
2022/02/02 20:18:08;;;;;;;13.37;12.47;;;6.50;99.90;;;;;;4993854;28;20290;-81
2022/02/02 20:20:39;;;;;;;13.20;12.10;;;6.50;99.90;;;;;;4991605;28;20252;-78
2022/02/02 20:23:06;;;;;;;12.97;12.07;;;6.50;99.90;;;;;;4993221;28;20690;-78
2022/02/02 20:25:37;;;;;;;13.23;12.33;;;6.60;99.90;;;;;;5004935;28;20202;-78
2022/02/02 20:28:06;;;;;;;13.60;12.60;;;6.60;99.90;;;;;;4991507;28;20280;-78
2022/02/02 20:30:34;;;;;;;13.43;12.53;;;6.60;99.90;;;;;;4992125;28;20201;-78
2022/02/02 20:33:01;;;;;;;12.80;12.00;;;6.60;99.90;;;;;;4996118;28;20209;-78